Time;durP1;ratioP1;P1;durP2;ratioP2;P2;SDS_P1;SDS_P2;PMS_P1;PMS_P2;Temp;Humidity;BMP_temperature;BMP_pressure;BME280_temperature;BME280_humidity;BME280_pressure;Samples;Min_cycle;Max_cycle;Signal;HPM_P1;HPM_P2
2023/05/25 00:00:00;;;;;;;25.20;11.97;;;;;;;11.17;74.29;100742.81;5041957;28;20638;-75
2023/05/25 00:02:26;;;;;;;29.48;10.77;;;;;;;11.19;75.07;100748.00;5041743;28;20257;-75
2023/05/25 00:04:51;;;;;;;31.27;13.27;;;;;;;11.26;75.29;100754.16;5042184;28;20041;-74
2023/05/25 00:07:17;;;;;;;34.23;13.43;;;;;;;11.36;74.81;100742.59;5042286;28;20041;-75
2023/05/25 00:09:43;;;;;;;28.35;11.35;;;;;;;11.37;75.12;100746.16;5041237;28;20701;-75
2023/05/25 00:12:09;;;;;;;30.45;11.73;;;;;;;11.47;75.17;100749.03;5044680;28;20036;-75
2023/05/25 00:14:34;;;;;;;28.05;11.65;;;;;;;11.53;74.86;100739.88;5045870;28;20115;-76
2023/05/25 00:17:02;;;;;;;21.08;10.55;;;;;;;11.55;75.48;100740.44;5046007;28;20112;-75
2023/05/25 00:19:28;;;;;;;32.53;11.57;;;;;;;11.56;75.44;100736.66;5044949;28;20037;-75
2023/05/25 00:21:53;;;;;;;22.52;10.98;;;;;;;11.61;75.44;100741.38;5045837;28;20057;-76
2023/05/25 00:24:18;;;;;;;24.70;11.03;;;;;;;11.63;75.59;100741.97;5045564;28;20410;-76
2023/05/25 00:26:44;;;;;;;22.73;11.13;;;;;;;11.64;75.44;100742.78;5045972;28;20353;-75
2023/05/25 00:29:09;;;;;;;24.98;10.52;;;;;;;11.72;74.88;100738.81;5045123;28;20262;-75
2023/05/25 00:31:35;;;;;;;31.17;10.88;;;;;;;11.66;74.76;100743.34;5045548;28;20111;-75
2023/05/25 00:34:00;;;;;;;26.30;12.00;;;;;;;11.63;74.85;100741.13;5045307;28;20036;-76
2023/05/25 00:36:25;;;;;;;28.00;12.33;;;;;;;11.64;74.80;100740.88;5045135;28;20036;-76
2023/05/25 00:38:51;;;;;;;24.13;10.27;;;;;;;11.62;74.66;100739.47;5045255;28;20357;-76
2023/05/25 00:41:17;;;;;;;21.98;10.90;;;;;;;11.50;75.39;100742.28;5045664;28;20262;-75
2023/05/25 00:43:46;;;;;;;26.33;11.13;;;;;;;11.43;75.48;100735.06;5045387;28;20140;-75
2023/05/25 00:46:15;;;;;;;24.17;12.07;;;;;;;11.48;75.24;100738.97;5045508;28;20488;-75
2023/05/25 00:48:42;;;;;;;20.83;10.75;;;;;;;11.42;74.72;100730.69;5045288;28;20037;-75
2023/05/25 00:51:09;;;;;;;35.78;12.38;;;;;;;11.30;74.25;100736.22;5045977;28;20033;-75
2023/05/25 00:53:35;;;;;;;22.25;11.73;;;;;;;11.19;74.77;100727.00;5045621;28;20033;-76
2023/05/25 00:56:07;;;;;;;29.75;14.18;;;;;;;11.26;74.22;100737.78;5045648;28;20064;-75
2023/05/25 00:58:34;;;;;;;22.45;10.95;;;;;;;11.29;74.15;100737.28;5045132;28;20037;-75
2023/05/25 01:01:02;;;;;;;26.05;11.23;;;;;;;11.25;74.47;100738.03;5044914;28;20410;-75
2023/05/25 01:03:36;;;;;;;26.17;11.07;;;;;;;11.29;73.95;100742.75;5044986;28;20474;-76
2023/05/25 01:06:05;;;;;;;27.45;11.35;;;;;;;11.13;74.50;100744.38;5045344;28;20037;-75
2023/05/25 01:08:32;;;;;;;26.80;10.40;;;;;;;11.14;74.55;100743.31;5044634;28;20071;-76
2023/05/25 01:11:01;;;;;;;22.50;11.10;;;;;;;11.18;73.96;100747.22;5045058;28;20478;-76
2023/05/25 01:13:27;;;;;;;48.42;12.07;;;;;;;11.18;74.36;100738.19;5044717;28;20044;-76
2023/05/25 01:15:53;;;;;;;22.98;10.25;;;;;;;11.16;74.24;100734.88;5044856;28;20025;-76
2023/05/25 01:18:18;;;;;;;24.25;11.90;;;;;;;11.09;73.69;100735.84;5044430;28;20052;-76
2023/05/25 01:21:19;;;;;;;20.88;10.90;;;;;;;11.08;73.25;100736.09;5044676;28;20076;-76
2023/05/25 01:24:20;;;;;;;25.55;11.75;;;;;;;10.97;73.69;100740.53;5038514;28;20091;-76
2023/05/25 01:26:56;;;;;;;21.38;9.80;;;;;;;10.89;74.62;100735.44;5045058;28;20033;-76
2023/05/25 01:29:25;;;;;;;30.50;12.38;;;;;;;10.86;74.26;100732.13;5044174;28;20060;-76
2023/05/25 01:31:52;;;;;;;24.45;10.88;;;;;;;10.81;74.39;100737.50;5044987;28;20293;-76
2023/05/25 01:34:19;;;;;;;23.65;11.25;;;;;;;10.84;73.85;100737.00;5044322;28;20083;-75
2023/05/25 01:36:45;;;;;;;22.75;11.48;;;;;;;10.89;73.74;100739.00;5044035;28;20032;-76
2023/05/25 01:39:11;;;;;;;20.40;11.38;;;;;;;10.81;73.45;100742.97;5043992;28;20037;-76
2023/05/25 01:41:36;;;;;;;30.92;11.15;;;;;;;10.70;73.92;100747.38;5044258;28;20028;-76
2023/05/25 01:44:02;;;;;;;23.42;10.18;;;;;;;10.74;73.89;100744.97;5044091;28;20718;-75
2023/05/25 01:46:36;;;;;;;22.77;11.05;;;;;;;10.67;73.90;100742.41;5043833;28;20068;-75
2023/05/25 01:49:20;;;;;;;;;;;;;;;10.56;74.08;100737.78;5044211;28;20076;-75
2023/05/25 01:52:13;;;;;;;26.15;11.10;;;;;;;10.55;74.29;100739.72;5044231;28;19917;-75
2023/05/25 01:54:45;;;;;;;21.85;9.82;;;;;;;10.57;73.90;100742.19;5044384;28;20040;-76
2023/05/25 01:57:14;;;;;;;23.92;9.60;;;;;;;10.60;74.11;100737.09;5044474;28;20872;-76
2023/05/25 01:59:42;;;;;;;25.40;10.93;;;;;;;10.67;74.42;100741.56;5043220;28;20402;-75
2023/05/25 02:02:08;;;;;;;25.38;10.48;;;;;;;10.75;74.04;100738.47;5044159;28;20763;-76
2023/05/25 02:04:35;;;;;;;25.88;11.50;;;;;;;10.81;73.99;100737.50;5042359;28;20434;-76
2023/05/25 02:07:02;;;;;;;26.65;11.05;;;;;;;10.72;75.09;100738.94;5044113;28;20371;-75
2023/05/25 02:09:28;;;;;;;25.20;10.90;;;;;;;10.60;75.66;100742.53;5042873;28;20347;-76
2023/05/25 02:11:53;;;;;;;26.43;12.50;;;;;;;10.67;75.84;100736.97;5043797;28;20036;-75
2023/05/25 02:14:18;;;;;;;23.70;10.90;;;;;;;10.74;74.75;100736.81;5043547;28;21067;-75
2023/05/25 02:16:44;;;;;;;28.52;11.07;;;;;;;10.65;75.80;100735.53;5042311;28;20282;-75
2023/05/25 02:19:11;;;;;;;26.52;10.15;;;;;;;10.61;75.76;100738.75;5043281;28;20665;-75
2023/05/25 02:21:37;;;;;;;23.20;10.15;;;;;;;10.74;74.94;100744.97;5043234;28;20090;-75
2023/05/25 02:24:02;;;;;;;31.80;11.35;;;;;;;10.64;73.60;100761.16;5043568;28;20463;-75
2023/05/25 02:26:27;;;;;;;21.63;10.15;;;;;;;10.57;74.28;100745.75;5043043;28;20041;-76
2023/05/25 02:28:53;;;;;;;21.97;9.53;;;;;;;10.60;74.58;100756.16;5043223;28;20041;-76
2023/05/25 02:31:18;;;;;;;26.00;11.50;;;;;;;10.57;73.73;100750.38;5043024;28;20686;-75
2023/05/25 02:33:43;;;;;;;21.20;9.47;;;;;;;10.47;73.46;100748.25;5043224;28;20110;-76
2023/05/25 02:36:08;;;;;;;24.40;10.33;;;;;;;10.51;74.15;100754.91;5044444;28;20986;-74
2023/05/25 02:38:34;;;;;;;16.40;9.35;;;;;;;10.58;74.02;100750.13;5042528;28;20258;-75
2023/05/25 02:40:59;;;;;;;22.10;10.30;;;;;;;10.50;72.67;100759.50;5043661;28;20059;-74
2023/05/25 02:43:24;;;;;;;20.83;9.88;;;;;;;10.41;73.64;100754.66;5043089;28;20410;-75
2023/05/25 02:45:50;;;;;;;14.75;9.07;;;;;;;10.26;73.80;100750.50;5044191;28;20044;-76
2023/05/25 02:48:15;;;;;;;26.43;11.50;;;;;;;10.14;74.39;100766.88;5043369;28;20509;-75
2023/05/25 02:50:40;;;;;;;25.83;10.18;;;;;;;10.26;73.12;100764.13;5043707;28;20337;-75
2023/05/25 02:53:05;;;;;;;22.80;11.40;;;;;;;10.15;73.42;100766.63;5043100;28;20673;-75
2023/05/25 02:55:31;;;;;;;23.65;10.57;;;;;;;10.11;73.80;100764.63;5042847;28;20265;-75
2023/05/25 02:57:57;;;;;;;22.20;9.67;;;;;;;10.11;73.94;100770.88;5042479;28;20126;-76
2023/05/25 03:00:22;;;;;;;20.73;10.38;;;;;;;10.09;74.30;100764.84;5042804;28;20284;-75
2023/05/25 03:02:47;;;;;;;23.95;10.82;;;;;;;10.12;74.11;100758.94;5042800;28;20033;-76
2023/05/25 03:05:15;;;;;;;27.95;11.65;;;;;;;10.11;73.53;100770.09;5042917;28;20036;-76
2023/05/25 03:07:40;;;;;;;25.35;10.00;;;;;;;10.02;73.63;100767.72;5042717;28;20452;-76
2023/05/25 03:10:06;;;;;;;19.45;10.70;;;;;;;9.92;73.87;100767.47;5042321;28;20037;-75
2023/05/25 03:12:31;;;;;;;17.00;9.80;;;;;;;9.89;74.51;100776.91;5042475;28;20075;-76
2023/05/25 03:14:57;;;;;;;27.80;10.53;;;;;;;9.87;74.26;100779.06;5042707;28;20181;-76
2023/05/25 03:17:22;;;;;;;16.92;10.48;;;;;;;9.82;74.39;100776.22;5042568;28;20782;-75
2023/05/25 03:19:47;;;;;;;24.38;10.00;;;;;;;9.86;74.32;100777.41;5040640;28;20039;-76
2023/05/25 03:22:12;;;;;;;28.57;10.80;;;;;;;9.89;73.87;100771.47;5043402;28;20607;-76
2023/05/25 03:24:40;;;;;;;23.53;11.23;;;;;;;9.86;74.26;100771.97;5042600;28;20282;-76
2023/05/25 03:27:06;;;;;;;43.00;13.07;;;;;;;9.89;74.21;100779.66;5042364;28;20288;-75
2023/05/25 03:29:31;;;;;;;26.88;12.80;;;;;;;9.93;73.97;100783.56;5042223;28;20049;-75
2023/05/25 03:31:56;;;;;;;24.52;12.52;;;;;;;9.93;74.99;100783.56;5043168;28;20409;-75
2023/05/25 03:34:23;;;;;;;27.33;10.50;;;;;;;10.11;75.01;100776.34;5042491;28;20079;-76
2023/05/25 03:36:49;;;;;;;30.40;11.48;;;;;;;10.03;74.92;100768.50;5042179;28;20336;-76
2023/05/25 03:39:14;;;;;;;22.75;11.68;;;;;;;9.95;74.62;100779.75;5041822;28;20044;-76
2023/05/25 03:41:39;;;;;;;22.35;11.65;;;;;;;9.92;74.92;100786.53;5042376;28;20028;-75
2023/05/25 03:44:05;;;;;;;19.50;9.75;;;;;;;9.97;74.22;100791.25;5042192;28;20032;-75
2023/05/25 03:46:30;;;;;;;28.77;12.32;;;;;;;9.98;74.54;100787.47;5041755;28;20032;-75
2023/05/25 03:48:55;;;;;;;26.10;10.70;;;;;;;10.03;74.52;100784.84;5040312;28;20033;-76
2023/05/25 03:51:20;;;;;;;24.02;12.38;;;;;;;10.00;73.58;100799.81;5041939;28;20258;-76
2023/05/25 03:53:46;;;;;;;24.73;10.73;;;;;;;9.92;74.53;100800.16;5041684;28;20048;-76
2023/05/25 03:56:11;;;;;;;21.37;10.67;;;;;;;9.97;74.59;100794.81;5042255;28;20251;-76
2023/05/25 03:58:36;;;;;;;24.23;13.43;;;;;;;9.95;75.13;100804.28;5041195;28;20266;-75
2023/05/25 04:01:02;;;;;;;24.70;11.15;;;;;;;10.02;75.24;100805.00;5042303;28;20262;-75
2023/05/25 04:03:27;;;;;;;22.55;10.85;;;;;;;10.11;75.16;100800.06;5041664;28;20439;-75
2023/05/25 04:05:52;;;;;;;26.13;12.30;;;;;;;10.26;74.39;100800.41;5042262;28;20039;-76
2023/05/25 04:08:18;;;;;;;27.80;11.43;;;;;;;10.30;74.16;100808.09;5040031;28;20731;-75
2023/05/25 04:10:45;;;;;;;23.60;11.27;;;;;;;10.30;74.58;100802.63;5041908;28;20344;-75
2023/05/25 04:13:10;;;;;;;32.83;12.70;;;;;;;10.19;74.90;100807.84;5040501;28;20035;-75
2023/05/25 04:15:36;;;;;;;24.58;11.38;;;;;;;10.15;75.39;100812.94;5042120;28;20036;-76
2023/05/25 04:18:01;;;;;;;26.25;11.15;;;;;;;10.18;74.85;100816.28;5041905;28;20044;-76
2023/05/25 04:20:27;;;;;;;33.40;12.82;;;;;;;10.19;75.51;100810.56;5041713;28;20053;-76
2023/05/25 04:22:52;;;;;;;21.23;12.23;;;;;;;10.22;75.45;100821.03;5042214;28;20028;-76
2023/05/25 04:25:18;;;;;;;25.23;12.77;;;;;;;10.29;75.55;100823.63;5041674;28;20044;-75
2023/05/25 04:27:45;;;;;;;25.33;12.00;;;;;;;10.32;75.65;100817.69;5041639;28;20266;-75
2023/05/25 04:30:11;;;;;;;28.67;13.48;;;;;;;10.32;75.78;100822.31;5041665;28;20036;-76
2023/05/25 04:32:37;;;;;;;30.20;13.48;;;;;;;10.32;75.82;100827.75;5041869;28;20118;-76
2023/05/25 04:35:04;;;;;;;23.83;12.75;;;;;;;10.28;76.15;100832.88;5042238;28;20033;-75
2023/05/25 04:37:31;;;;;;;26.20;11.90;;;;;;;10.32;76.65;100828.59;5041401;28;20557;-76
2023/05/25 04:39:57;;;;;;;27.38;13.27;;;;;;;10.36;76.23;100824.34;5039810;28;20044;-75
2023/05/25 04:42:22;;;;;;;37.88;12.38;;;;;;;10.44;76.11;100825.03;5042402;28;20040;-76
2023/05/25 04:44:48;;;;;;;31.17;14.77;;;;;;;10.57;75.98;100835.75;5041996;28;20379;-76
2023/05/25 04:47:15;;;;;;;26.98;12.02;;;;;;;10.64;75.25;100834.78;5041913;28;20120;-76
2023/05/25 04:49:40;;;;;;;20.35;11.80;;;;;;;10.78;75.16;100838.09;5041353;28;20064;-76
2023/05/25 04:52:05;;;;;;;25.63;13.63;;;;;;;10.76;75.62;100843.75;5042363;28;20797;-76
2023/05/25 04:54:31;;;;;;;28.83;13.33;;;;;;;10.84;75.37;100835.22;5041521;28;20025;-76
2023/05/25 04:56:56;;;;;;;20.53;11.17;;;;;;;10.88;75.48;100835.59;5041870;28;20262;-76
2023/05/25 04:59:21;;;;;;;32.67;13.27;;;;;;;10.88;75.71;100830.13;5043928;28;20312;-76
2023/05/25 05:01:47;;;;;;;21.80;11.77;;;;;;;10.95;75.17;100832.69;5045203;28;20040;-76
2023/05/25 05:04:14;;;;;;;33.25;13.82;;;;;;;10.92;75.33;100842.19;5043766;28;20277;-76
2023/05/25 05:06:39;;;;;;;30.58;14.23;;;;;;;10.95;75.66;100841.72;5044992;28;20123;-76
2023/05/25 05:09:04;;;;;;;30.02;13.48;;;;;;;11.05;75.58;100852.03;5044886;28;20128;-76
2023/05/25 05:11:30;;;;;;;35.83;15.23;;;;;;;11.04;76.29;100849.53;5045043;28;20029;-76
2023/05/25 05:13:55;;;;;;;27.03;14.13;;;;;;;11.07;76.03;100849.03;5045339;28;20124;-76
2023/05/25 05:16:21;;;;;;;26.40;14.02;;;;;;;11.16;75.85;100857.69;5044674;28;20266;-76
2023/05/25 05:18:46;;;;;;;28.05;12.38;;;;;;;11.20;75.31;100859.72;5044384;28;20049;-76
2023/05/25 05:21:11;;;;;;;21.85;12.75;;;;;;;11.05;75.63;100859.38;5044966;28;20053;-76
2023/05/25 05:23:37;;;;;;;27.13;13.80;;;;;;;11.06;76.07;100864.63;5044545;28;20240;-76
2023/05/25 05:26:03;;;;;;;23.85;12.90;;;;;;;11.16;75.82;100868.59;5044871;28;20033;-76
2023/05/25 05:28:29;;;;;;;28.10;14.10;;;;;;;11.15;75.78;100866.94;5044055;28;20041;-75
2023/05/25 05:30:55;;;;;;;28.25;15.70;;;;;;;10.99;76.59;100877.53;5045122;28;20025;-75
2023/05/25 05:33:22;;;;;;;29.48;16.02;;;;;;;10.97;77.23;100876.94;5044497;28;20490;-75
2023/05/25 05:35:48;;;;;;;28.55;15.82;;;;;;;10.96;77.80;100886.22;5044738;28;20033;-76
2023/05/25 05:38:13;;;;;;;32.78;15.70;;;;;;;11.16;76.92;100885.00;5044141;28;20029;-76
2023/05/25 05:40:38;;;;;;;34.93;14.47;;;;;;;11.15;77.37;100884.16;5044476;28;20371;-75
2023/05/25 05:43:03;;;;;;;25.65;14.45;;;;;;;11.34;76.32;100889.44;5044541;28;20278;-76
2023/05/25 05:45:29;;;;;;;34.15;16.88;;;;;;;11.44;76.80;100897.84;5044492;28;20025;-75
2023/05/25 05:47:54;;;;;;;25.40;15.50;;;;;;;11.41;76.53;100902.97;5044433;28;20359;-76
2023/05/25 05:50:19;;;;;;;29.63;12.93;;;;;;;11.55;76.37;100901.59;5044066;28;20078;-75
2023/05/25 05:52:45;;;;;;;29.52;12.10;;;;;;;11.68;76.30;100896.91;5043381;28;20269;-74
2023/05/25 05:55:10;;;;;;;24.13;13.15;;;;;;;11.77;76.21;100906.38;5043727;28;20028;-75
2023/05/25 05:57:36;;;;;;;26.30;12.20;;;;;;;11.98;75.61;100906.72;5043959;28;20025;-75
2023/05/25 06:00:03;;;;;;;33.45;14.10;;;;;;;12.02;75.37;100905.16;5043632;28;20037;-76
2023/05/25 06:02:29;;;;;;;25.30;11.53;;;;;;;12.10;74.35;100914.84;5043135;28;20108;-75
2023/05/25 06:04:54;;;;;;;19.83;12.00;;;;;;;12.22;74.09;100912.13;5042202;28;21127;-76
2023/05/25 06:07:19;;;;;;;20.43;11.67;;;;;;;12.21;74.76;100910.44;5043984;28;20739;-77
2023/05/25 06:09:45;;;;;;;24.67;12.70;;;;;;;12.31;73.87;100909.78;5043025;28;20266;-76
2023/05/25 06:12:10;;;;;;;28.13;13.13;;;;;;;12.36;73.78;100911.78;5044024;28;20033;-76
2023/05/25 06:14:35;;;;;;;19.87;10.33;;;;;;;12.47;72.87;100902.66;5043262;28;20281;-76
2023/05/25 06:17:00;;;;;;;22.70;10.82;;;;;;;12.54;73.01;100907.94;5044049;28;20258;-76
2023/05/25 06:19:26;;;;;;;24.88;12.25;;;;;;;12.56;73.01;100910.44;5042960;28;20036;-77
2023/05/25 06:21:51;;;;;;;21.90;11.02;;;;;;;12.51;73.57;100915.84;5043559;28;20083;-76
2023/05/25 06:24:16;;;;;;;32.97;13.73;;;;;;;12.61;72.61;100910.50;5043894;28;20394;-76
2023/05/25 06:26:42;;;;;;;25.07;12.20;;;;;;;12.63;72.66;100922.00;5043477;28;20741;-75
2023/05/25 06:29:07;;;;;;;24.60;12.93;;;;;;;12.66;73.12;100916.06;5043633;28;20281;-76
2023/05/25 06:31:32;;;;;;;27.70;12.80;;;;;;;12.60;73.00;100917.91;5042196;28;20648;-77
2023/05/25 06:33:57;;;;;;;28.50;12.60;;;;;;;12.51;73.66;100913.91;5043999;28;20277;-75
2023/05/25 06:36:23;;;;;;;24.17;11.27;;;;;;;12.51;74.31;100913.09;5043751;28;20900;-75
2023/05/25 06:38:48;;;;;;;26.85;13.43;;;;;;;12.68;73.72;100919.38;5043333;28;20274;-75
2023/05/25 06:41:14;;;;;;;31.98;13.93;;;;;;;12.73;73.42;100926.84;5044133;28;20463;-77
2023/05/25 06:43:41;;;;;;;26.15;13.88;;;;;;;12.80;73.22;100921.16;5043638;28;20470;-76
2023/05/25 06:46:06;;;;;;;24.75;13.35;;;;;;;12.85;73.76;100921.25;5043774;28;20033;-77
2023/05/25 06:48:31;;;;;;;18.67;11.30;;;;;;;12.94;73.37;100922.47;5041656;28;20044;-75
2023/05/25 06:50:57;;;;;;;30.27;13.80;;;;;;;13.04;72.78;100920.94;5043955;28;20629;-77
2023/05/25 06:53:22;;;;;;;22.87;12.23;;;;;;;12.95;72.89;100923.31;5043562;28;20258;-76
2023/05/25 06:55:48;;;;;;;33.20;13.37;;;;;;;13.00;73.68;100928.00;5043444;28;20360;-77
2023/05/25 06:58:13;;;;;;;26.50;12.85;;;;;;;13.21;72.05;100926.38;5042992;28;20257;-76
2023/05/25 07:00:38;;;;;;;28.95;13.98;;;;;;;13.26;72.19;100939.31;5043153;28;20463;-74
2023/05/25 07:03:03;;;;;;;31.27;12.63;;;;;;;13.36;71.65;100933.16;5043120;28;20053;-77
2023/05/25 07:05:29;;;;;;;29.70;14.50;;;;;;;13.27;72.50;100935.50;5042793;28;20251;-76
2023/05/25 07:07:54;;;;;;;27.15;14.20;;;;;;;13.48;71.29;100933.00;5042861;28;20770;-77
2023/05/25 07:10:19;;;;;;;21.90;13.70;;;;;;;13.50;70.83;100925.38;5043031;28;20028;-77
2023/05/25 07:12:45;;;;;;;24.58;14.10;;;;;;;13.59;70.35;100934.81;5042870;28;20869;-77
2023/05/25 07:15:12;;;;;;;29.33;12.90;;;;;;;13.69;70.60;100938.75;5042959;28;20508;-78
2023/05/25 07:17:37;;;;;;;30.27;13.20;;;;;;;13.79;70.54;100936.09;5042678;28;20250;-77
2023/05/25 07:20:04;;;;;;;23.15;13.38;;;;;;;13.74;70.26;100945.13;5042004;28;21349;-77
2023/05/25 07:22:29;;;;;;;22.25;11.40;;;;;;;13.86;69.38;100942.22;5042534;28;20169;-77
2023/05/25 07:24:54;;;;;;;25.92;12.93;;;;;;;13.95;69.46;100941.78;5043094;28;20741;-76
2023/05/25 07:27:20;;;;;;;24.53;11.67;;;;;;;13.90;70.26;100937.06;5042675;28;20493;-77
2023/05/25 07:29:45;;;;;;;23.67;10.65;;;;;;;14.01;69.28;100940.75;5042337;28;20264;-76
2023/05/25 07:32:10;;;;;;;22.95;11.82;;;;;;;13.95;69.92;100944.50;5042651;28;20119;-77
2023/05/25 07:34:35;;;;;;;20.42;11.48;;;;;;;14.05;68.70;100944.63;5042434;28;20076;-77
2023/05/25 07:37:01;;;;;;;29.70;12.25;;;;;;;14.10;68.26;100952.88;5042907;28;20029;-77
2023/05/25 07:39:26;;;;;;;23.60;13.90;;;;;;;14.01;68.67;100958.00;5042021;28;20461;-77
2023/05/25 07:41:51;;;;;;;24.75;10.75;;;;;;;14.18;68.06;100953.47;5042225;28;20068;-77
2023/05/25 07:44:17;;;;;;;23.35;11.02;;;;;;;14.25;68.06;100956.84;5042380;28;20104;-77
2023/05/25 07:46:42;;;;;;;20.90;11.15;;;;;;;14.39;67.01;100954.50;5042079;28;20119;-77
2023/05/25 07:49:12;;;;;;;22.70;11.65;;;;;;;14.45;66.83;100960.84;5042183;28;20043;-77
2023/05/25 07:51:37;;;;;;;20.13;11.20;;;;;;;14.44;67.05;100959.22;5042133;28;20453;-77
2023/05/25 07:54:03;;;;;;;18.25;9.77;;;;;;;14.40;67.09;100958.09;5042351;28;20033;-77
2023/05/25 07:56:28;;;;;;;20.67;9.68;;;;;;;14.46;67.17;100965.28;5042166;28;20045;-77
2023/05/25 07:58:53;;;;;;;20.58;10.55;;;;;;;14.51;66.28;100962.56;5042006;28;20071;-77
2023/05/25 08:01:19;;;;;;;19.33;10.02;;;;;;;14.23;67.48;100973.56;5042320;28;20068;-77
2023/05/25 08:03:44;;;;;;;20.35;11.50;;;;;;;14.41;66.92;100970.69;5041137;28;20374;-78
2023/05/25 08:06:10;;;;;;;20.20;9.07;;;;;;;14.36;66.59;100965.97;5040764;28;20178;-78
2023/05/25 08:08:36;;;;;;;18.92;10.13;;;;;;;14.56;65.66;100965.31;5041315;28;20263;-77
2023/05/25 08:11:01;;;;;;;19.13;10.70;;;;;;;14.64;65.17;100965.94;5042440;28;20960;-79
2023/05/25 08:13:26;;;;;;;20.92;11.80;;;;;;;14.65;64.69;100968.41;5041415;28;20533;-76
2023/05/25 08:15:52;;;;;;;26.37;10.63;;;;;;;14.54;65.58;100964.75;5041889;28;20364;-77
2023/05/25 08:18:18;;;;;;;22.53;11.57;;;;;;;14.47;66.28;100969.66;5040788;28;20316;-76
2023/05/25 08:20:43;;;;;;;19.50;11.50;;;;;;;14.56;65.70;100970.81;5041709;28;20374;-76
2023/05/25 08:23:08;;;;;;;24.10;12.50;;;;;;;14.65;64.89;100967.59;5042442;28;20037;-77
2023/05/25 08:25:33;;;;;;;24.00;12.90;;;;;;;14.76;64.34;100971.25;5042023;28;20112;-76
2023/05/25 08:27:59;;;;;;;25.57;14.27;;;;;;;14.78;64.45;100972.66;5042050;28;20286;-77
2023/05/25 08:30:24;;;;;;;28.07;14.63;;;;;;;14.73;64.70;100969.84;5042156;28;20292;-76
2023/05/25 08:32:49;;;;;;;26.92;16.55;;;;;;;14.88;64.15;100968.34;5044179;28;20304;-76
2023/05/25 08:35:16;;;;;;;26.60;14.25;;;;;;;14.84;63.75;100970.78;5046600;28;20037;-76
2023/05/25 08:37:42;;;;;;;30.80;14.35;;;;;;;14.81;63.90;100977.59;5045762;28;20025;-76
2023/05/25 08:40:13;;;;;;;26.60;16.55;;;;;;;14.89;63.85;100979.03;5045849;28;20505;-76
2023/05/25 08:42:41;;;;;;;24.08;14.98;;;;;;;14.95;63.26;100974.41;5045835;28;20120;-76
2023/05/25 08:45:07;;;;;;;20.02;11.98;;;;;;;14.97;63.29;100983.22;5046071;28;20033;-76
2023/05/25 08:47:39;;;;;;;22.75;11.95;;;;;;;15.00;63.08;100979.94;5045274;28;20556;-76
2023/05/25 08:50:07;;;;;;;24.35;14.32;;;;;;;15.13;62.91;100978.63;5045416;28;20044;-76
2023/05/25 08:52:35;;;;;;;24.88;14.57;;;;;;;15.09;62.85;100976.72;5045509;28;20158;-77
2023/05/25 08:55:03;;;;;;;23.02;14.25;;;;;;;15.12;62.69;100976.16;5045892;28;20025;-76
2023/05/25 08:57:39;;;;;;;23.48;13.70;;;;;;;15.08;62.54;100986.03;5045130;28;20498;-76
2023/05/25 09:00:09;;;;;;;27.70;14.57;;;;;;;15.07;62.61;100984.38;5043773;28;20398;-76
2023/05/25 09:02:41;;;;;;;31.98;14.27;;;;;;;15.10;63.52;100978.34;5044919;28;20029;-76
2023/05/25 09:05:07;;;;;;;23.58;14.38;;;;;;;15.23;62.91;100977.91;5045723;28;20035;-76
2023/05/25 09:07:33;;;;;;;25.90;12.55;;;;;;;15.05;62.99;100979.97;5044797;28;20081;-76
2023/05/25 09:09:59;;;;;;;21.02;12.93;;;;;;;15.11;62.58;100985.50;5044887;28;20033;-76
2023/05/25 09:12:28;;;;;;;24.00;13.85;;;;;;;15.09;61.70;100987.69;5045052;28;20020;-77
2023/05/25 09:14:54;;;;;;;28.20;13.85;;;;;;;15.33;61.82;100979.84;5044870;28;20041;-77
2023/05/25 09:17:20;;;;;;;35.33;16.83;;;;;;;15.39;62.00;100986.19;5045199;28;20033;-76
2023/05/25 09:19:46;;;;;;;24.80;13.85;;;;;;;15.53;60.65;100986.53;5044587;28;20104;-76
2023/05/25 09:22:11;;;;;;;21.23;9.00;;;;;;;15.56;60.91;100979.69;5045034;28;20450;-76
2023/05/25 09:24:39;;;;;;;19.77;11.57;;;;;;;15.64;60.78;100987.41;5044415;28;20167;-76
2023/05/25 09:27:05;;;;;;;22.17;12.35;;;;;;;15.64;60.54;100981.91;5045283;28;20029;-76
2023/05/25 09:29:32;;;;;;;22.30;12.77;;;;;;;15.57;60.58;100992.31;5044077;28;20489;-75
2023/05/25 09:31:59;;;;;;;18.13;9.63;;;;;;;15.54;61.27;100996.41;5044908;28;20462;-77
2023/05/25 09:34:32;;;;;;;13.82;7.47;;;;;;;15.53;61.33;100992.03;5044807;28;20044;-77
2023/05/25 09:36:57;;;;;;;13.25;7.80;;;;;;;15.55;61.00;101000.00;5045295;28;20471;-75
2023/05/25 09:39:24;;;;;;;14.85;7.20;;;;;;;15.62;61.90;100995.91;5044139;28;20072;-77
2023/05/25 09:41:49;;;;;;;16.77;7.45;;;;;;;15.70;61.05;101002.81;5044446;28;20098;-78
2023/05/25 09:44:15;;;;;;;16.73;7.00;;;;;;;15.64;60.69;100998.41;5043611;28;20033;-77
2023/05/25 09:46:40;;;;;;;17.02;6.22;;;;;;;15.57;60.99;100998.66;5044535;28;20296;-77
2023/05/25 09:49:09;;;;;;;18.63;6.20;;;;;;;15.51;62.05;101006.03;5044325;28;20041;-77
2023/05/25 09:51:35;;;;;;;13.05;6.07;;;;;;;15.48;61.65;101009.31;5044087;28;20033;-76
2023/05/25 09:54:01;;;;;;;9.57;5.38;;;;;;;15.12;61.58;101003.63;5044652;28;20029;-76
2023/05/25 09:56:30;;;;;;;11.00;5.78;;;;;;;15.22;62.47;101008.34;5044150;28;20036;-76
2023/05/25 09:58:55;;;;;;;14.52;5.75;;;;;;;15.23;63.11;101010.84;5044273;28;20064;-76
2023/05/25 10:01:21;;;;;;;14.55;6.95;;;;;;;15.35;61.73;101018.88;5044311;28;20060;-76
2023/05/25 10:03:47;;;;;;;16.00;6.25;;;;;;;15.35;61.94;101018.06;5044430;28;20048;-76
2023/05/25 10:06:16;;;;;;;14.15;7.22;;;;;;;15.32;61.76;101022.16;5042835;28;20913;-76
2023/05/25 10:08:44;;;;;;;16.02;6.53;;;;;;;15.46;60.95;101029.94;5043361;28;20491;-77
2023/05/25 10:11:12;;;;;;;14.00;6.90;;;;;;;15.47;61.11;101031.56;5044210;28;20547;-76
2023/05/25 10:13:38;;;;;;;16.02;6.75;;;;;;;15.40;60.79;101032.63;5043612;28;20037;-76
2023/05/25 10:16:05;;;;;;;17.95;7.03;;;;;;;15.38;60.88;101042.22;5043955;28;20406;-75
2023/05/25 10:18:34;;;;;;;16.50;7.43;;;;;;;15.04;60.77;101036.00;5043314;28;20070;-75
2023/05/25 10:21:02;;;;;;;14.05;5.85;;;;;;;14.99;60.87;101038.69;5043841;28;20049;-76
2023/05/25 10:23:43;;;;;;;17.77;7.70;;;;;;;15.03;60.89;101045.31;5043247;28;20059;-76
2023/05/25 10:26:12;;;;;;;23.27;8.02;;;;;;;15.00;61.54;101039.53;5043895;28;20032;-76
2023/05/25 10:28:38;;;;;;;16.63;8.75;;;;;;;15.06;61.00;101038.47;5042952;28;20040;-77
2023/05/25 10:31:05;;;;;;;17.10;9.20;;;;;;;15.04;60.64;101035.16;5043603;28;20082;-76
2023/05/25 10:33:31;;;;;;;20.60;9.35;;;;;;;15.15;60.82;101041.56;5043354;28;20044;-76
2023/05/25 10:35:57;;;;;;;17.23;9.30;;;;;;;15.13;60.62;101038.25;5043726;28;20068;-76
2023/05/25 10:38:25;;;;;;;24.23;9.73;;;;;;;15.17;60.17;101042.13;5042914;28;20040;-76
2023/05/25 10:40:52;;;;;;;19.33;8.93;;;;;;;15.22;60.34;101038.56;5043249;28;20060;-77
2023/05/25 10:43:19;;;;;;;15.52;9.65;;;;;;;15.35;60.54;101045.53;5043286;28;20170;-76
2023/05/25 10:45:44;;;;;;;21.98;9.50;;;;;;;15.47;60.38;101048.91;5041854;28;20123;-77
2023/05/25 10:48:09;;;;;;;14.20;8.18;;;;;;;15.53;58.94;101038.75;5043376;28;20115;-76
2023/05/25 10:50:36;;;;;;;15.73;7.93;;;;;;;15.77;59.04;101035.56;5043326;28;20025;-77
2023/05/25 10:53:21;;;;;;;16.17;7.78;;;;;;;15.98;58.69;101035.63;5043697;28;20025;-77
2023/05/25 10:55:52;;;;;;;21.42;8.18;;;;;;;16.01;57.96;101026.03;5042907;28;20029;-76
2023/05/25 10:58:20;;;;;;;24.75;9.50;;;;;;;15.81;57.77;101031.16;5042687;28;20470;-77
2023/05/25 11:01:07;;;;;;;15.50;8.65;;;;;;;15.89;58.36;101038.06;5043026;28;20040;-76
2023/05/25 11:03:51;;;;;;;15.00;8.90;;;;;;;15.84;58.54;101032.56;5042920;28;20025;-75
2023/05/25 11:06:19;;;;;;;20.75;8.02;;;;;;;16.01;57.42;101028.78;5042980;28;20461;-74
2023/05/25 11:08:55;;;;;;;12.02;7.78;;;;;;;16.02;56.74;101024.94;5042339;28;20553;-75